createdAt,value
2018-12-19T00:00:51.272Z,98998.78
2018-12-19T00:03:18.709Z,98987.66
2018-12-19T00:05:46.121Z,98998.97
2018-12-19T00:08:13.571Z,98989.22
2018-12-19T00:10:41.019Z,98991.03
2018-12-19T00:13:08.441Z,98983.34
2018-12-19T00:15:35.899Z,98992.88
2018-12-19T00:18:03.315Z,98998.33
2018-12-19T00:20:30.760Z,98992.81
2018-12-19T00:22:58.544Z,98995.03
2018-12-19T00:25:25.970Z,98981.66
2018-12-19T00:27:53.430Z,98993.47
2018-12-19T00:30:20.871Z,99010.96
2018-12-19T00:32:48.519Z,99020.08
2018-12-19T00:35:16.001Z,99012.19
2018-12-19T00:37:43.454Z,99015.98
2018-12-19T00:40:10.941Z,99005.33
2018-12-19T00:42:38.453Z,99012.94
2018-12-19T00:45:05.919Z,99001.46
2018-12-19T00:47:33.355Z,98999.55
2018-12-19T00:50:00.944Z,99005.59
2018-12-19T00:52:30.609Z,99005.70
2018-12-19T00:54:58.021Z,98995.39
2018-12-19T00:57:25.431Z,99002.22
2018-12-19T00:59:52.888Z,99007.86
2018-12-19T01:02:20.915Z,99010.20
2018-12-19T01:04:48.421Z,99003.12
2018-12-19T01:07:15.810Z,98989.78
2018-12-19T01:09:43.242Z,98995.47
2018-12-19T01:12:10.658Z,98991.09
2018-12-19T01:14:38.100Z,98990.00
2018-12-19T01:17:05.538Z,98988.16
2018-12-19T01:19:34.598Z,98980.50
2018-12-19T01:22:02.092Z,98958.98
2018-12-19T01:24:29.547Z,98981.66
2018-12-19T01:26:56.994Z,98981.03
2018-12-19T01:29:24.434Z,98977.00
2018-12-19T01:31:51.873Z,98982.03
2018-12-19T01:34:19.282Z,98977.91
2018-12-19T01:36:46.722Z,98983.90
2018-12-19T01:39:14.132Z,98986.83
2018-12-19T01:41:43.356Z,98987.42
2018-12-19T01:44:10.963Z,99002.36
2018-12-19T01:46:38.397Z,99004.10
2018-12-19T01:49:05.823Z,98994.37
2018-12-19T01:51:33.280Z,98997.27
2018-12-19T01:54:00.715Z,98975.64
2018-12-19T01:56:28.163Z,98975.84
2018-12-19T01:58:55.595Z,98974.06
2018-12-19T02:01:23.045Z,98986.34
2018-12-19T02:03:50.469Z,98991.26
2018-12-19T02:06:17.897Z,98990.20
2018-12-19T02:08:45.344Z,98987.34
2018-12-19T02:11:12.777Z,98983.67
2018-12-19T02:13:40.229Z,98999.68
2018-12-19T02:16:08.528Z,98999.20
2018-12-19T02:18:36.026Z,98991.59
2018-12-19T02:21:03.430Z,99002.69
2018-12-19T02:23:30.870Z,98997.46
2018-12-19T02:25:58.279Z,99002.37
2018-12-19T02:28:25.719Z,98999.25
2018-12-19T02:30:53.160Z,98986.11
2018-12-19T02:33:20.648Z,98987.30
2018-12-19T02:35:48.094Z,98987.27
2018-12-19T02:38:15.558Z,99000.40
2018-12-19T02:40:42.988Z,98994.98
2018-12-19T02:43:10.433Z,98996.30
2018-12-19T02:45:37.867Z,99007.02
2018-12-19T02:48:05.295Z,99007.66
2018-12-19T02:50:32.766Z,99018.38
2018-12-19T02:53:00.199Z,98998.97
2018-12-19T02:55:27.645Z,99011.40
2018-12-19T02:57:55.098Z,99037.37
2018-12-19T03:00:22.553Z,99022.41
2018-12-19T03:02:49.994Z,99024.49
2018-12-19T03:05:17.459Z,99025.59
2018-12-19T03:07:44.883Z,99033.13
2018-12-19T03:10:12.331Z,99042.38
2018-12-19T03:12:39.775Z,99046.01
2018-12-19T03:15:08.113Z,99060.30
2018-12-19T03:17:35.584Z,99056.00
2018-12-19T03:20:02.988Z,99048.87
2018-12-19T03:22:30.422Z,99054.27
2018-12-19T03:24:57.841Z,99033.36
2018-12-19T03:27:25.267Z,99018.07
2018-12-19T03:29:52.676Z,99045.59
2018-12-19T03:32:20.108Z,99023.45
2018-12-19T03:34:47.543Z,99013.52
2018-12-19T03:37:14.988Z,99024.09
2018-12-19T03:39:42.417Z,99008.33
2018-12-19T03:42:09.928Z,98995.82
2018-12-19T03:44:37.351Z,98974.63
2018-12-19T03:47:04.785Z,98990.31
2018-12-19T03:49:32.266Z,98988.03
2018-12-19T03:51:59.706Z,98992.95
2018-12-19T03:54:27.119Z,98973.36
2018-12-19T03:56:54.579Z,98979.58
2018-12-19T03:59:21.993Z,98976.93
2018-12-19T04:01:50.354Z,98980.07
2018-12-19T04:04:17.857Z,98971.75
2018-12-19T04:06:45.284Z,98967.19
2018-12-19T04:09:12.719Z,98968.70
2018-12-19T04:11:40.208Z,98969.41
2018-12-19T04:14:07.620Z,98956.20
2018-12-19T04:16:35.027Z,98957.86
2018-12-19T04:19:02.477Z,98949.75
2018-12-19T04:21:29.895Z,98941.41
2018-12-19T04:23:58.312Z,98932.28
2018-12-19T04:26:25.755Z,98939.35
2018-12-19T04:28:53.203Z,98935.95
2018-12-19T04:31:20.615Z,98935.30
2018-12-19T04:33:48.058Z,98936.86
2018-12-19T04:36:15.492Z,98940.69
2018-12-19T04:38:42.928Z,98939.63
2018-12-19T04:41:10.361Z,98935.51
2018-12-19T04:43:37.808Z,98928.00
2018-12-19T04:46:05.211Z,98935.39
2018-12-19T04:48:32.676Z,98936.01
2018-12-19T04:51:00.091Z,98940.63
2018-12-19T04:53:27.535Z,98940.95
2018-12-19T04:55:54.957Z,98940.30
2018-12-19T04:58:22.385Z,98926.41
2018-12-19T05:00:52.055Z,98927.09
2018-12-19T05:03:19.593Z,98930.73
2018-12-19T05:05:47.031Z,98943.19
2018-12-19T05:08:14.490Z,98941.41
2018-12-19T05:10:41.944Z,98934.30
2018-12-19T05:13:09.376Z,98949.64
2018-12-19T05:15:36.897Z,98948.22
2018-12-19T05:18:04.338Z,98958.67
2018-12-19T05:20:31.777Z,98959.44
2018-12-19T05:23:00.746Z,98954.66
2018-12-19T05:25:28.247Z,98960.59
2018-12-19T05:27:55.672Z,98954.88
2018-12-19T05:30:23.104Z,98959.03
2018-12-19T05:32:50.525Z,98961.03
2018-12-19T05:35:17.964Z,98965.11
2018-12-19T05:37:45.372Z,98971.30
2018-12-19T05:40:18.666Z,98961.02
2018-12-19T05:42:40.288Z,98969.88
2018-12-19T05:45:07.733Z,98982.18
2018-12-19T05:47:35.158Z,98981.05
2018-12-19T05:50:02.639Z,98992.14
2018-12-19T05:52:30.047Z,98992.11
2018-12-19T05:54:57.496Z,98990.78
2018-12-19T05:57:24.982Z,98986.78
2018-12-19T05:59:52.380Z,98982.44
2018-12-19T06:02:19.822Z,98989.45
2018-12-19T06:04:47.265Z,98992.06
2018-12-19T06:07:14.693Z,98988.33
2018-12-19T06:09:42.114Z,98988.08
2018-12-19T06:12:09.551Z,99000.45
2018-12-19T06:14:37.726Z,99007.67
2018-12-19T06:17:04.755Z,99014.37
2018-12-19T06:19:32.194Z,99014.38
2018-12-19T06:21:59.648Z,99012.97
2018-12-19T06:24:27.097Z,99007.12
2018-12-19T06:26:54.522Z,99006.84
2018-12-19T06:29:21.958Z,99015.59
2018-12-19T06:31:49.377Z,99014.45
2018-12-19T06:34:17.410Z,99017.66
2018-12-19T06:36:44.857Z,99021.05
2018-12-19T06:39:12.293Z,99018.70
2018-12-19T06:41:39.737Z,99030.90
2018-12-19T06:44:07.151Z,99023.48
2018-12-19T06:46:34.585Z,99033.41
2018-12-19T06:49:02.017Z,99026.48
2018-12-19T06:51:29.448Z,99033.06
2018-12-19T06:53:56.868Z,99029.12
2018-12-19T06:56:24.315Z,99031.53
2018-12-19T06:58:51.720Z,99039.89
2018-12-19T07:01:19.187Z,99037.11
2018-12-19T07:03:46.629Z,99038.15
2018-12-19T07:06:14.075Z,99033.85
2018-12-19T07:08:41.602Z,99046.53
2018-12-19T07:11:08.945Z,99039.64
2018-12-19T07:13:36.390Z,99045.92
2018-12-19T07:16:03.829Z,99037.70
2018-12-19T07:18:31.250Z,99041.00
2018-12-19T07:20:58.662Z,99040.09
2018-12-19T07:23:26.109Z,99051.56
2018-12-19T07:25:53.557Z,99051.74
2018-12-19T07:28:20.970Z,99060.83
2018-12-19T07:30:48.400Z,99064.16
2018-12-19T07:33:15.834Z,99065.85
2018-12-19T07:35:43.276Z,99068.22
2018-12-19T07:38:10.740Z,99067.64
2018-12-19T07:40:45.368Z,99074.41
2018-12-19T07:43:06.675Z,99069.55
2018-12-19T07:45:34.121Z,99075.27
2018-12-19T07:48:01.547Z,99075.72
2018-12-19T07:50:29.001Z,99072.73
2018-12-19T07:52:56.434Z,99082.80
2018-12-19T07:55:23.867Z,99088.77
2018-12-19T07:57:51.289Z,99087.31
2018-12-19T08:00:18.737Z,99084.63
2018-12-19T08:02:46.174Z,99094.23
2018-12-19T08:05:13.595Z,99095.75
2018-12-19T08:07:41.031Z,99092.88
2018-12-19T08:10:08.457Z,99097.12
2018-12-19T08:12:36.238Z,99099.10
2018-12-19T08:15:03.349Z,99101.87
2018-12-19T08:17:30.791Z,99095.50
2018-12-19T08:19:58.209Z,99094.41
2018-12-19T08:22:25.664Z,99098.11
2018-12-19T08:24:53.085Z,99100.84
2018-12-19T08:27:20.518Z,99111.80
2018-12-19T08:29:47.949Z,99119.92
2018-12-19T08:32:15.362Z,99111.02
2018-12-19T08:34:42.838Z,99117.80
2018-12-19T08:37:11.765Z,99114.09
2018-12-19T08:39:39.259Z,99125.79
2018-12-19T08:42:06.687Z,99117.47
2018-12-19T08:44:34.108Z,99121.34
2018-12-19T08:47:01.534Z,99126.86
2018-12-19T08:49:28.966Z,99129.96
2018-12-19T08:51:56.376Z,99128.11
2018-12-19T08:54:23.824Z,99128.97
2018-12-19T08:56:51.228Z,99131.47
2018-12-19T08:59:18.674Z,99130.86
2018-12-19T09:01:46.128Z,99137.96
2018-12-19T09:04:13.553Z,99143.31
2018-12-19T09:06:40.968Z,99139.75
2018-12-19T09:09:08.414Z,99141.42
2018-12-19T09:11:35.861Z,99148.24
2018-12-19T09:14:03.277Z,99147.25
2018-12-19T09:16:30.774Z,99148.97
2018-12-19T09:18:58.212Z,99145.53
2018-12-19T09:21:25.641Z,99142.59
2018-12-19T09:23:53.077Z,99148.01
2018-12-19T09:26:20.548Z,99146.36
2018-12-19T09:28:47.987Z,99141.30
2018-12-19T09:31:15.509Z,99129.09
2018-12-19T09:33:42.937Z,99137.52
2018-12-19T09:36:10.367Z,99137.70
2018-12-19T09:38:37.804Z,99145.80
2018-12-19T09:41:05.247Z,99145.00
2018-12-19T09:43:32.696Z,99146.69
2018-12-19T09:46:00.140Z,99149.70
2018-12-19T09:48:27.559Z,99140.17
2018-12-19T09:50:54.968Z,99142.19
2018-12-19T09:53:22.417Z,99146.03
2018-12-19T09:55:49.835Z,99141.28
2018-12-19T09:58:17.300Z,99154.75
2018-12-19T10:00:44.723Z,99151.55
2018-12-19T10:03:12.140Z,99151.79
2018-12-19T10:05:39.566Z,99144.23
2018-12-19T10:08:06.991Z,99153.30
2018-12-19T10:10:34.429Z,99153.91
2018-12-19T10:13:01.838Z,99155.49
2018-12-19T10:15:29.276Z,99159.20
2018-12-19T10:17:56.729Z,99155.36
2018-12-19T10:20:24.162Z,99160.56
2018-12-19T10:22:51.577Z,99156.79
2018-12-19T10:25:19.009Z,99153.75
2018-12-19T10:27:46.552Z,99151.67
2018-12-19T10:30:13.957Z,99155.80
2018-12-19T10:32:41.465Z,99148.97
2018-12-19T10:35:08.888Z,99147.52
2018-12-19T10:37:36.307Z,99144.19
2018-12-19T10:40:03.729Z,99139.94
2018-12-19T10:42:31.165Z,99133.97
2018-12-19T10:44:58.580Z,99138.66
2018-12-19T10:47:25.996Z,99133.11
2018-12-19T10:49:53.432Z,99137.58
2018-12-19T10:52:20.842Z,99134.01
2018-12-19T10:54:48.279Z,99139.73
2018-12-19T10:57:15.696Z,99136.55
2018-12-19T10:59:43.171Z,99126.59
2018-12-19T11:02:11.457Z,99128.89
2018-12-19T11:04:39.012Z,99120.69
2018-12-19T11:07:06.449Z,99123.48
2018-12-19T11:09:33.867Z,99126.16
2018-12-19T11:12:01.303Z,99123.63
2018-12-19T11:14:28.735Z,99126.80
2018-12-19T11:16:56.621Z,99120.29
2018-12-19T11:19:24.453Z,99114.12
2018-12-19T11:21:52.419Z,99105.32
2018-12-19T11:24:19.894Z,99107.83
2018-12-19T11:26:47.324Z,99108.01
2018-12-19T11:29:14.777Z,99113.38
2018-12-19T11:31:42.193Z,99111.27
2018-12-19T11:34:09.618Z,99109.98
2018-12-19T11:36:37.065Z,99104.86
2018-12-19T11:39:04.851Z,99101.38
2018-12-19T11:41:38.797Z,99107.18
2018-12-19T11:43:59.874Z,99097.88
2018-12-19T11:46:27.321Z,99104.14
2018-12-19T11:48:54.773Z,99104.05
2018-12-19T11:51:22.202Z,99106.20
2018-12-19T11:53:49.651Z,99102.73
2018-12-19T11:56:17.094Z,99110.63
2018-12-19T11:58:44.563Z,99108.34
2018-12-19T12:01:12.528Z,99109.36
2018-12-19T12:03:39.990Z,99108.20
2018-12-19T12:06:07.440Z,99101.23
2018-12-19T12:08:34.854Z,99101.76
2018-12-19T12:11:02.340Z,99098.08
2018-12-19T12:13:29.761Z,99103.73
2018-12-19T12:15:57.199Z,99098.67
2018-12-19T12:18:24.623Z,99102.76
2018-12-19T12:20:52.098Z,99099.13
2018-12-19T12:23:19.535Z,99100.96
2018-12-19T12:25:46.993Z,99101.77
2018-12-19T12:28:14.459Z,99089.38
2018-12-19T12:30:41.875Z,99095.22
2018-12-19T12:33:09.328Z,99094.06
2018-12-19T12:35:36.748Z,99094.86
2018-12-19T12:38:04.211Z,99085.23
2018-12-19T12:40:31.618Z,99082.34
2018-12-19T12:42:59.048Z,99084.02
2018-12-19T12:45:26.470Z,99073.73
2018-12-19T12:47:53.906Z,99076.82
2018-12-19T12:50:21.341Z,99073.88
2018-12-19T12:52:48.767Z,99077.02
2018-12-19T12:55:16.203Z,99076.73
2018-12-19T12:57:43.621Z,99069.49
2018-12-19T13:00:11.040Z,99066.28
2018-12-19T13:02:38.472Z,99077.08
2018-12-19T13:05:05.914Z,99078.05
2018-12-19T13:07:33.350Z,99079.23
2018-12-19T13:10:00.769Z,99073.91
2018-12-19T13:12:28.216Z,99077.27
2018-12-19T13:14:55.653Z,99078.92
2018-12-19T13:17:23.114Z,99078.03
2018-12-19T13:19:50.535Z,99077.81
2018-12-19T13:22:17.972Z,99063.62
2018-12-19T13:24:45.395Z,99066.51
2018-12-19T13:27:12.818Z,99064.89
2018-12-19T13:29:40.256Z,99074.03
2018-12-19T13:32:07.691Z,99069.57
2018-12-19T13:34:35.135Z,99077.81
2018-12-19T13:37:02.598Z,99069.29
2018-12-19T13:39:30.005Z,99067.84
2018-12-19T13:41:57.431Z,99067.89
2018-12-19T13:44:24.858Z,99071.10
2018-12-19T13:46:52.313Z,99071.20
2018-12-19T13:49:19.723Z,99068.22
2018-12-19T13:51:47.162Z,99064.78
2018-12-19T13:54:14.649Z,99062.83
2018-12-19T13:56:42.075Z,99068.81
2018-12-19T13:59:09.520Z,99058.77
2018-12-19T14:01:36.945Z,99064.14
2018-12-19T14:04:04.367Z,99059.74
2018-12-19T14:06:31.794Z,99062.73
2018-12-19T14:08:59.245Z,99061.89
2018-12-19T14:11:26.651Z,99057.47
2018-12-19T14:13:54.083Z,99060.33
2018-12-19T14:16:21.531Z,99062.23
2018-12-19T14:18:48.962Z,99056.06
2018-12-19T14:21:16.410Z,99064.68
2018-12-19T14:23:43.845Z,99057.84
2018-12-19T14:26:11.302Z,99058.31
2018-12-19T14:28:38.717Z,99062.18
2018-12-19T14:31:06.130Z,99062.34
2018-12-19T14:33:33.562Z,99063.66
2018-12-19T14:36:00.997Z,99060.73
2018-12-19T14:38:28.453Z,99060.37
2018-12-19T14:40:55.890Z,99062.92
2018-12-19T14:43:23.331Z,99064.48
2018-12-19T14:45:50.770Z,99063.11
2018-12-19T14:48:18.184Z,99059.91
2018-12-19T14:50:45.637Z,99058.86
2018-12-19T14:53:13.080Z,99061.78
2018-12-19T14:55:40.504Z,99053.39
2018-12-19T14:58:07.949Z,99051.09
2018-12-19T15:00:35.382Z,99052.00
2018-12-19T15:03:02.920Z,99057.97
2018-12-19T15:05:30.416Z,99050.40
2018-12-19T15:07:57.894Z,99047.19
2018-12-19T15:10:25.365Z,99043.05
2018-12-19T15:12:53.625Z,99040.28
2018-12-19T15:15:21.194Z,99037.55
2018-12-19T15:17:48.641Z,99029.73
2018-12-19T15:20:16.097Z,99025.33
2018-12-19T15:22:43.544Z,99019.47
2018-12-19T15:25:10.957Z,99023.72
2018-12-19T15:27:38.384Z,99028.73
2018-12-19T15:30:05.867Z,99028.17
2018-12-19T15:32:33.289Z,99017.13
2018-12-19T15:35:01.902Z,99008.89
2018-12-19T15:37:29.350Z,99004.43
2018-12-19T15:39:56.876Z,99009.67
2018-12-19T15:42:24.336Z,99007.31
2018-12-19T15:44:51.765Z,99006.34
2018-12-19T15:47:19.204Z,99014.02
2018-12-19T15:49:46.617Z,99024.34
2018-12-19T15:52:14.059Z,99008.10
2018-12-19T15:54:41.467Z,99019.18
2018-12-19T15:57:08.903Z,99022.88
2018-12-19T15:59:36.331Z,99029.30
2018-12-19T16:02:03.817Z,99035.28
2018-12-19T16:04:31.235Z,99034.45
2018-12-19T16:06:58.662Z,99044.62
2018-12-19T16:09:26.098Z,99046.03
2018-12-19T16:11:53.525Z,99045.91
2018-12-19T16:14:20.954Z,99056.17
2018-12-19T16:16:48.381Z,99058.81
2018-12-19T16:19:15.818Z,99056.82
2018-12-19T16:21:43.242Z,99056.11
2018-12-19T16:24:11.114Z,99056.64
2018-12-19T16:26:38.518Z,99058.75
2018-12-19T16:29:05.950Z,99056.64
2018-12-19T16:31:33.384Z,99061.59
2018-12-19T16:34:00.819Z,99064.95
2018-12-19T16:36:28.254Z,99065.56
2018-12-19T16:38:55.681Z,99072.88
2018-12-19T16:41:23.120Z,99071.13
2018-12-19T16:43:50.546Z,99069.56
2018-12-19T16:46:17.981Z,99057.67
2018-12-19T16:48:45.410Z,99060.49
2018-12-19T16:51:12.871Z,99068.88
2018-12-19T16:53:40.284Z,99064.43
2018-12-19T16:56:07.721Z,99069.49
2018-12-19T16:58:35.155Z,99067.95
2018-12-19T17:01:02.596Z,99070.30
2018-12-19T17:03:30.033Z,99065.36
2018-12-19T17:05:57.475Z,99066.85
2018-12-19T17:08:24.887Z,99071.48
2018-12-19T17:10:52.323Z,99066.32
2018-12-19T17:13:19.726Z,99066.33
2018-12-19T17:15:47.140Z,99070.39
2018-12-19T17:18:14.577Z,99068.17
2018-12-19T17:20:42.004Z,99067.64
2018-12-19T17:23:09.470Z,99061.56
2018-12-19T17:25:36.909Z,99067.65
2018-12-19T17:28:04.451Z,99052.73
2018-12-19T17:30:31.878Z,99057.94
2018-12-19T17:32:59.304Z,99060.97
2018-12-19T17:35:26.745Z,99048.16
2018-12-19T17:37:54.469Z,99054.20
2018-12-19T17:40:21.962Z,99049.34
2018-12-19T17:42:49.386Z,99055.46
2018-12-19T17:45:16.840Z,99049.97
2018-12-19T17:47:44.281Z,99055.74
2018-12-19T17:50:11.733Z,99058.91
2018-12-19T17:52:39.143Z,99054.30
2018-12-19T17:55:06.601Z,99054.49
2018-12-19T17:57:34.030Z,99055.45
2018-12-19T18:00:01.473Z,99048.06
2018-12-19T18:02:28.886Z,99051.69
2018-12-19T18:04:56.332Z,99052.19
2018-12-19T18:07:23.774Z,99057.86
2018-12-19T18:09:51.192Z,99062.89
2018-12-19T18:12:19.321Z,99057.92
2018-12-19T18:14:46.748Z,99059.88
2018-12-19T18:17:14.197Z,99059.27
2018-12-19T18:19:41.603Z,99062.27
2018-12-19T18:22:09.040Z,99064.81
2018-12-19T18:24:36.435Z,99062.86
2018-12-19T18:27:03.870Z,99065.47
2018-12-19T18:29:31.386Z,99065.73
2018-12-19T18:31:58.918Z,99063.59
2018-12-19T18:34:26.347Z,99066.69
2018-12-19T18:36:53.780Z,99061.38
2018-12-19T18:39:26.177Z,99063.23
2018-12-19T18:41:48.665Z,99070.82
2018-12-19T18:44:16.119Z,99065.76
2018-12-19T18:46:43.609Z,99064.62
2018-12-19T18:49:11.123Z,99061.53
2018-12-19T18:51:38.541Z,99065.36
2018-12-19T18:54:05.995Z,99067.82
2018-12-19T18:56:33.401Z,99065.45
2018-12-19T18:59:02.131Z,99058.63
2018-12-19T19:01:29.651Z,99053.45
2018-12-19T19:03:57.115Z,99062.89
2018-12-19T19:06:24.516Z,99056.70
2018-12-19T19:08:52.013Z,99048.59
2018-12-19T19:11:19.453Z,99047.39
2018-12-19T19:13:46.900Z,99047.58
2018-12-19T19:16:14.315Z,99044.52
2018-12-19T19:18:41.725Z,99042.19
2018-12-19T19:21:09.166Z,99042.00
2018-12-19T19:23:36.582Z,99035.77
2018-12-19T19:26:05.057Z,99034.53
2018-12-19T19:28:32.485Z,99038.25
2018-12-19T19:30:59.914Z,99034.08
2018-12-19T19:33:27.325Z,99033.47
2018-12-19T19:35:54.743Z,99036.92
2018-12-19T19:38:22.156Z,99036.38
2018-12-19T19:40:49.593Z,99041.34
2018-12-19T19:43:17.074Z,99033.87
2018-12-19T19:45:44.511Z,99042.12
2018-12-19T19:48:11.918Z,99042.39
2018-12-19T19:50:39.363Z,99046.80
2018-12-19T19:53:06.990Z,99045.68
2018-12-19T19:55:34.411Z,99046.91
2018-12-19T19:58:01.859Z,99047.52
2018-12-19T20:00:29.289Z,99047.16
2018-12-19T20:02:56.818Z,99049.19
2018-12-19T20:05:24.278Z,99047.42
2018-12-19T20:07:51.715Z,99059.27
2018-12-19T20:10:19.142Z,99058.38
2018-12-19T20:12:46.589Z,99055.56
2018-12-19T20:15:14.009Z,99053.99
2018-12-19T20:17:41.439Z,99062.11
2018-12-19T20:20:08.877Z,99063.80
2018-12-19T20:22:36.344Z,99059.09
2018-12-19T20:25:04.747Z,99057.80
2018-12-19T20:27:32.254Z,99055.72
2018-12-19T20:29:59.681Z,99051.52
2018-12-19T20:32:27.146Z,99047.94
2018-12-19T20:34:55.238Z,99050.86
2018-12-19T20:37:22.731Z,99050.25
2018-12-19T20:39:50.153Z,99053.63
2018-12-19T20:42:17.597Z,99055.80
2018-12-19T20:44:45.012Z,99055.55
2018-12-19T20:47:13.484Z,99048.11
2018-12-19T20:49:41.055Z,99040.69
2018-12-19T20:52:08.465Z,99046.88
2018-12-19T20:54:35.914Z,99040.19
2018-12-19T20:57:03.345Z,99041.50
2018-12-19T20:59:30.798Z,99034.41
2018-12-19T21:01:58.232Z,99045.82
2018-12-19T21:04:25.756Z,99045.03
2018-12-19T21:06:53.386Z,99040.80
2018-12-19T21:09:21.261Z,99041.23
2018-12-19T21:11:49.750Z,99035.14
2018-12-19T21:14:17.275Z,99040.11
2018-12-19T21:16:50.330Z,99043.27
2018-12-19T21:19:17.828Z,99042.19
2018-12-19T21:21:46.047Z,99039.10
2018-12-19T21:24:14.375Z,99040.97
2018-12-19T21:26:42.709Z,99034.34
2018-12-19T21:29:10.669Z,99037.89
2018-12-19T21:31:38.870Z,99033.64
2018-12-19T21:34:07.187Z,99035.39
2018-12-19T21:36:35.367Z,99032.48
2018-12-19T21:39:03.930Z,99038.80
2018-12-19T21:41:32.156Z,99036.12
2018-12-19T21:44:00.460Z,99038.11
2018-12-19T21:46:29.385Z,99038.24
2018-12-19T21:48:57.433Z,99030.58
2018-12-19T21:51:25.278Z,99032.06
2018-12-19T21:53:53.249Z,99028.42
2018-12-19T21:56:21.884Z,99030.63
2018-12-19T21:58:49.839Z,99029.24
2018-12-19T22:01:17.922Z,99033.34
2018-12-19T22:03:46.019Z,99027.46
2018-12-19T22:06:14.403Z,99031.89
2018-12-19T22:08:42.571Z,99021.97
2018-12-19T22:11:11.734Z,99021.88
2018-12-19T22:13:39.863Z,99021.00
2018-12-19T22:16:08.062Z,99028.88
2018-12-19T22:18:41.745Z,99026.72
2018-12-19T22:21:09.953Z,99031.91
2018-12-19T22:23:38.763Z,99033.00
2018-12-19T22:26:07.073Z,99041.31
2018-12-19T22:28:35.819Z,99033.92
2018-12-19T22:31:04.208Z,99034.67
2018-12-19T22:33:32.225Z,99040.91
2018-12-19T22:36:00.670Z,99038.20
2018-12-19T22:38:29.037Z,99044.42
2018-12-19T22:40:57.342Z,99045.17
2018-12-19T22:43:25.618Z,99035.66
2018-12-19T22:45:53.779Z,99039.16
2018-12-19T22:48:21.392Z,99035.84
2018-12-19T22:50:49.605Z,99034.45
2018-12-19T22:53:18.020Z,99029.73
2018-12-19T22:55:46.241Z,99033.66
2018-12-19T22:58:13.814Z,99030.72
2018-12-19T23:00:56.368Z,99030.58
2018-12-19T23:03:25.363Z,99025.94
2018-12-19T23:05:53.666Z,99028.23
2018-12-19T23:08:21.363Z,99032.89
2018-12-19T23:10:49.760Z,99026.19
2018-12-19T23:13:18.459Z,99032.31
2018-12-19T23:15:46.195Z,99029.82
2018-12-19T23:18:19.226Z,99030.21
2018-12-19T23:20:46.602Z,99032.06
2018-12-19T23:23:14.463Z,99025.60
2018-12-19T23:25:42.987Z,99017.43
2018-12-19T23:28:10.602Z,99024.13
2018-12-19T23:30:40.545Z,99020.37
2018-12-19T23:33:08.878Z,99023.37
2018-12-19T23:35:37.017Z,99024.37
2018-12-19T23:38:05.205Z,99023.23
2018-12-19T23:40:33.735Z,99022.86
2018-12-19T23:43:02.058Z,99018.53
2018-12-19T23:45:29.732Z,99015.69
2018-12-19T23:47:57.512Z,99023.81
2018-12-19T23:50:25.017Z,99014.80
2018-12-19T23:52:53.343Z,99010.59
2018-12-19T23:55:20.956Z,99003.04
2018-12-19T23:57:48.451Z,99013.52
